createdAt,value
2023-04-19T00:00:43.498Z,9.97
2023-04-19T00:03:12.113Z,9.96
2023-04-19T00:05:41.721Z,9.96
2023-04-19T00:08:10.174Z,9.95
2023-04-19T00:10:40.278Z,9.95
2023-04-19T00:13:08.658Z,9.95
2023-04-19T00:15:38.260Z,9.96
2023-04-19T00:18:06.860Z,9.97
2023-04-19T00:20:36.624Z,9.98
2023-04-19T00:23:04.991Z,10.02
2023-04-19T00:25:34.920Z,10.04
2023-04-19T00:28:04.213Z,10.05
2023-04-19T00:30:32.842Z,10.07
2023-04-19T00:33:01.551Z,10.07
2023-04-19T00:35:30.215Z,10.08
2023-04-19T00:37:58.742Z,10.08
2023-04-19T00:40:28.013Z,10.07
2023-04-19T00:42:56.285Z,10.06
2023-04-19T00:45:25.828Z,10.05
2023-04-19T00:47:54.342Z,10.04
2023-04-19T00:50:22.741Z,10.04
2023-04-19T00:52:51.206Z,10.03
2023-04-19T00:55:19.798Z,10.04
2023-04-19T00:57:48.344Z,10.04
2023-04-19T01:00:18.163Z,10.03
2023-04-19T01:02:48.014Z,10.03
2023-04-19T01:05:16.728Z,10.03
2023-04-19T01:07:45.221Z,10.02
2023-04-19T01:10:16.184Z,10.02
2023-04-19T01:12:44.536Z,10.02
2023-04-19T01:15:12.788Z,10.03
2023-04-19T01:17:42.557Z,10.03
2023-04-19T01:20:11.892Z,10.03
2023-04-19T01:22:40.492Z,10.04
2023-04-19T01:25:09.225Z,10.05
2023-04-19T01:27:37.683Z,10.06
2023-04-19T01:30:06.921Z,10.06
2023-04-19T01:32:35.958Z,10.05
2023-04-19T01:35:04.491Z,10.05
2023-04-19T01:37:35.857Z,10.04
2023-04-19T01:40:07.725Z,10.04
2023-04-19T01:42:37.393Z,10.03
2023-04-19T01:45:06.315Z,10.03
2023-04-19T01:47:34.699Z,10.03
2023-04-19T01:50:04.112Z,10.05
2023-04-19T01:52:32.547Z,10.06
2023-04-19T01:55:00.954Z,10.08
2023-04-19T01:57:29.740Z,10.09
2023-04-19T01:59:58.816Z,10.11
2023-04-19T02:02:27.770Z,10.12
2023-04-19T02:04:56.169Z,10.13
2023-04-19T02:07:24.455Z,10.14
2023-04-19T02:09:52.737Z,10.15
2023-04-19T02:12:21.536Z,10.15
2023-04-19T02:14:49.840Z,10.13
2023-04-19T02:17:18.337Z,10.11
2023-04-19T02:19:46.691Z,10.09
2023-04-19T02:22:15.048Z,10.07
2023-04-19T02:24:43.464Z,10.06
2023-04-19T02:27:11.998Z,10.06
2023-04-19T02:29:40.961Z,10.05
2023-04-19T02:32:09.538Z,10.06
2023-04-19T02:34:39.728Z,10.06
2023-04-19T02:37:09.964Z,10.05
2023-04-19T02:39:38.695Z,10.05
2023-04-19T02:42:07.054Z,10.04
2023-04-19T02:44:35.672Z,10.03
2023-04-19T02:47:04.038Z,10.03
2023-04-19T02:49:37.219Z,10.02
2023-04-19T02:52:05.896Z,10.02
2023-04-19T02:54:35.246Z,10.01
2023-04-19T02:57:03.536Z,10.00
2023-04-19T02:59:31.843Z,9.99
2023-04-19T03:02:01.954Z,9.98
2023-04-19T03:04:31.608Z,9.97
2023-04-19T03:07:00.263Z,9.95
2023-04-19T03:09:28.902Z,9.95
2023-04-19T03:11:57.213Z,9.94
2023-04-19T03:14:25.584Z,9.93
2023-04-19T03:16:54.195Z,9.93
2023-04-19T03:19:23.113Z,9.93
2023-04-19T03:21:52.906Z,9.91
2023-04-19T03:24:29.206Z,9.91
2023-04-19T03:26:57.913Z,9.90
2023-04-19T03:29:28.496Z,9.89
2023-04-19T03:32:01.688Z,9.89
2023-04-19T03:34:30.756Z,9.88
2023-04-19T03:36:59.109Z,9.88
2023-04-19T03:39:28.422Z,9.87
2023-04-19T03:42:01.699Z,9.87
2023-04-19T03:44:53.011Z,9.87
2023-04-19T03:47:21.601Z,9.89
2023-04-19T03:49:50.556Z,9.90
2023-04-19T03:52:19.064Z,9.92
2023-04-19T03:54:47.335Z,9.95
2023-04-19T03:57:26.477Z,9.97
2023-04-19T03:59:55.053Z,9.99
2023-04-19T04:02:23.537Z,10.02
2023-04-19T04:04:55.444Z,10.05
2023-04-19T04:07:24.772Z,10.10
2023-04-19T04:09:53.621Z,10.17
2023-04-19T04:12:22.251Z,10.30
2023-04-19T04:14:52.651Z,10.65
2023-04-19T04:17:22.664Z,10.95
2023-04-19T04:19:51.333Z,10.94
2023-04-19T04:22:20.535Z,10.84
2023-04-19T04:24:49.441Z,10.77
2023-04-19T04:27:28.338Z,10.75
2023-04-19T04:29:56.999Z,10.85
2023-04-19T04:32:25.628Z,11.13
2023-04-19T04:34:58.169Z,11.38
2023-04-19T04:37:37.345Z,11.88
2023-04-19T04:40:06.583Z,12.47
2023-04-19T04:42:35.855Z,12.99
2023-04-19T04:45:04.920Z,13.33
2023-04-19T04:47:34.812Z,13.48
2023-04-19T04:50:06.361Z,13.70
2023-04-19T04:52:35.768Z,13.86
2023-04-19T04:55:24.230Z,13.81
2023-04-19T04:57:52.540Z,13.85
2023-04-19T05:00:30.284Z,13.87
2023-04-19T05:03:03.240Z,13.87
2023-04-19T05:05:32.957Z,14.08
2023-04-19T05:08:01.606Z,14.41
2023-04-19T05:10:30.442Z,14.63
2023-04-19T05:12:59.583Z,14.63
2023-04-19T05:15:29.097Z,14.62
2023-04-19T05:17:57.641Z,14.49
2023-04-19T05:20:26.949Z,14.36
2023-04-19T05:23:03.645Z,14.26
2023-04-19T05:25:33.267Z,14.20
2023-04-19T05:28:03.637Z,14.22
2023-04-19T05:30:38.223Z,14.18
2023-04-19T05:33:07.319Z,14.19
2023-04-19T05:35:35.970Z,14.08
2023-04-19T05:38:04.468Z,13.85
2023-04-19T05:40:33.317Z,13.63
2023-04-19T05:43:01.649Z,13.50
2023-04-19T05:45:30.266Z,13.44
2023-04-19T05:47:58.545Z,13.55
2023-04-19T05:50:50.081Z,13.58
2023-04-19T05:53:34.620Z,13.53
2023-04-19T05:56:02.918Z,13.41
2023-04-19T05:58:32.014Z,13.16
2023-04-19T06:01:00.495Z,12.90
2023-04-19T06:03:31.432Z,12.68
2023-04-19T06:06:00.916Z,12.50
2023-04-19T06:08:29.482Z,12.41
2023-04-19T06:11:02.103Z,12.32
2023-04-19T06:13:36.564Z,12.28
2023-04-19T06:16:05.958Z,12.26
2023-04-19T06:18:34.708Z,12.29
2023-04-19T06:21:03.145Z,12.34
2023-04-19T06:23:31.624Z,12.37
2023-04-19T06:25:59.967Z,12.36
2023-04-19T06:28:29.408Z,12.29
2023-04-19T06:30:57.727Z,12.21
2023-04-19T06:33:26.087Z,12.12
2023-04-19T06:35:54.431Z,12.09
2023-04-19T06:38:22.800Z,12.31
2023-04-19T06:40:51.172Z,12.59
2023-04-19T06:43:19.522Z,12.84
2023-04-19T06:45:48.286Z,13.11
2023-04-19T06:48:16.737Z,13.29
2023-04-19T06:50:45.066Z,13.38
2023-04-19T06:53:13.396Z,13.43
2023-04-19T06:55:41.786Z,13.62
2023-04-19T06:58:11.135Z,13.84
2023-04-19T07:00:39.557Z,13.98
2023-04-19T07:03:08.035Z,14.14
2023-04-19T07:05:36.605Z,14.38
2023-04-19T07:08:05.023Z,14.75
2023-04-19T07:10:33.581Z,15.04
2023-04-19T07:13:02.020Z,15.37
2023-04-19T07:15:30.620Z,15.95
2023-04-19T07:17:59.109Z,16.46
2023-04-19T07:20:27.556Z,16.66
2023-04-19T07:22:55.946Z,16.44
2023-04-19T07:25:24.469Z,15.93
2023-04-19T07:27:54.342Z,15.44
2023-04-19T07:30:22.672Z,15.19
2023-04-19T07:32:52.241Z,15.04
2023-04-19T07:35:20.894Z,14.87
2023-04-19T07:37:49.361Z,14.66
2023-04-19T07:40:17.848Z,14.54
2023-04-19T07:42:46.140Z,14.59
2023-04-19T07:45:14.864Z,14.77
2023-04-19T07:47:43.291Z,15.24
2023-04-19T07:50:12.600Z,15.97
2023-04-19T07:52:41.041Z,16.65
2023-04-19T07:55:09.572Z,17.08
2023-04-19T07:57:38.177Z,17.08
2023-04-19T08:00:07.247Z,16.80
2023-04-19T08:02:45.266Z,16.40
2023-04-19T08:05:14.491Z,15.93
2023-04-19T08:07:43.754Z,15.44
2023-04-19T08:10:12.160Z,15.10
2023-04-19T08:12:50.378Z,14.97
2023-04-19T08:17:57.011Z,15.04
2023-04-19T08:20:25.568Z,15.16
2023-04-19T08:22:54.529Z,15.32
2023-04-19T08:25:26.975Z,15.61
2023-04-19T08:27:57.648Z,15.99
2023-04-19T08:30:26.691Z,16.12
2023-04-19T08:32:57.024Z,16.11
2023-04-19T08:35:25.817Z,16.15
2023-04-19T08:37:54.198Z,16.20
2023-04-19T08:40:22.546Z,16.12
2023-04-19T08:42:51.929Z,16.14
2023-04-19T08:45:27.063Z,16.28
2023-04-19T08:48:01.169Z,16.43
2023-04-19T08:50:34.528Z,16.43
2023-04-19T08:55:40.896Z,16.55
2023-04-19T08:58:26.313Z,16.43
2023-04-19T09:01:02.853Z,16.42
2023-04-19T09:03:40.913Z,16.58
2023-04-19T09:06:16.198Z,16.67
2023-04-19T09:08:44.733Z,16.75
2023-04-19T09:11:13.138Z,16.86
2023-04-19T09:13:44.255Z,16.74
2023-04-19T09:16:25.431Z,16.51
2023-04-19T09:19:23.531Z,16.43
2023-04-19T09:21:47.065Z,16.45
2023-04-19T09:24:15.881Z,16.38
2023-04-19T09:26:54.295Z,16.22
2023-04-19T09:29:22.687Z,15.99
2023-04-19T09:32:00.456Z,15.82
2023-04-19T09:34:30.791Z,15.69
2023-04-19T09:37:11.713Z,15.43
2023-04-19T09:39:43.421Z,15.11
2023-04-19T09:42:11.667Z,14.95
2023-04-19T09:47:32.893Z,14.93
2023-04-19T09:50:22.494Z,15.07
2023-04-19T09:52:55.746Z,15.22
2023-04-19T09:55:27.767Z,15.26
2023-04-19T09:57:56.937Z,15.17
2023-04-19T10:00:25.619Z,15.09
2023-04-19T10:02:58.021Z,15.07
2023-04-19T10:05:27.126Z,14.95
2023-04-19T10:08:00.088Z,14.83
2023-04-19T10:15:47.282Z,14.81
2023-04-19T10:18:20.692Z,14.66
2023-04-19T10:20:55.169Z,14.56
2023-04-19T10:23:23.412Z,14.47
2023-04-19T10:25:56.070Z,14.34
2023-04-19T10:28:24.458Z,14.16
2023-04-19T10:31:03.088Z,14.01
2023-04-19T10:33:35.814Z,13.91
2023-04-19T10:36:04.938Z,13.78
2023-04-19T10:38:37.465Z,13.68
2023-04-19T10:41:14.509Z,13.56
2023-04-19T10:43:48.621Z,13.51
2023-04-19T10:46:23.370Z,13.51
2023-04-19T10:48:57.414Z,13.49
2023-04-19T10:51:43.557Z,13.45
2023-04-19T10:54:34.498Z,13.37
2023-04-19T10:57:06.863Z,13.28
2023-04-19T10:59:35.664Z,13.23
2023-04-19T11:02:32.826Z,13.21
2023-04-19T11:05:01.731Z,13.13
2023-04-19T11:07:37.403Z,13.05
2023-04-19T11:10:06.896Z,12.98
2023-04-19T11:12:35.432Z,12.88
2023-04-19T11:15:04.100Z,12.75
2023-04-19T11:17:32.780Z,12.62
2023-04-19T11:20:09.656Z,12.49
2023-04-19T11:22:42.534Z,12.39
2023-04-19T11:25:16.760Z,12.29
2023-04-19T11:27:46.644Z,12.17
2023-04-19T11:30:17.038Z,12.04
2023-04-19T11:32:47.060Z,11.90
2023-04-19T11:35:15.951Z,11.78
2023-04-19T11:37:44.378Z,11.71
2023-04-19T11:40:16.943Z,11.64
2023-04-19T11:42:45.659Z,11.56
2023-04-19T11:45:34.564Z,11.52
2023-04-19T11:48:05.877Z,11.52
2023-04-19T11:50:39.216Z,11.54
2023-04-19T11:53:11.982Z,11.52
2023-04-19T11:55:46.165Z,11.43
2023-04-19T11:58:33.754Z,11.34
2023-04-19T12:01:11.339Z,11.19
2023-04-19T12:03:50.725Z,11.09
2023-04-19T12:06:27.193Z,10.99
2023-04-19T12:08:56.044Z,10.92
2023-04-19T12:11:26.749Z,10.88
2023-04-19T12:14:14.168Z,10.84
2023-04-19T12:16:45.081Z,10.77
2023-04-19T12:19:14.709Z,10.73
2023-04-19T12:21:43.412Z,10.73
2023-04-19T12:24:12.577Z,10.72
2023-04-19T12:26:57.173Z,10.70
2023-04-19T12:29:25.709Z,10.68
2023-04-19T12:31:54.088Z,10.67
2023-04-19T12:34:22.532Z,10.70
2023-04-19T12:36:50.845Z,10.73
2023-04-19T12:39:19.186Z,10.78
2023-04-19T12:41:50.183Z,10.83
2023-04-19T12:44:18.788Z,10.85
2023-04-19T12:46:47.270Z,10.90
2023-04-19T12:49:18.457Z,10.94
2023-04-19T12:51:47.806Z,10.98
2023-04-19T12:54:16.397Z,11.01
2023-04-19T12:56:44.750Z,11.00
2023-04-19T12:59:13.351Z,10.96
2023-04-19T13:01:41.726Z,10.95
2023-04-19T13:04:12.092Z,10.93
2023-04-19T13:06:41.129Z,10.94
2023-04-19T13:11:41.355Z,10.86
2023-04-19T13:14:09.727Z,10.88
2023-04-19T13:16:38.658Z,10.92
2023-04-19T13:19:07.141Z,10.94
2023-04-19T13:21:36.071Z,10.91
2023-04-19T13:24:04.594Z,10.84
2023-04-19T13:26:34.507Z,10.78
2023-04-19T13:29:03.115Z,10.71
2023-04-19T13:31:32.178Z,10.62
2023-04-19T13:34:01.646Z,10.55
2023-04-19T13:36:30.168Z,10.52
2023-04-19T13:38:58.779Z,10.51
2023-04-19T13:41:27.127Z,10.47
2023-04-19T13:43:55.418Z,10.42
2023-04-19T13:46:23.890Z,10.39
2023-04-19T13:48:52.234Z,10.38
2023-04-19T13:51:20.633Z,10.39
2023-04-19T13:53:48.900Z,10.42
2023-04-19T13:56:17.315Z,10.45
2023-04-19T13:58:45.601Z,10.47
2023-04-19T14:01:13.960Z,10.49
2023-04-19T14:03:42.500Z,10.49
2023-04-19T14:06:11.319Z,10.46
2023-04-19T14:08:40.166Z,10.44
2023-04-19T14:11:08.402Z,10.43
2023-04-19T14:13:37.054Z,10.41
2023-04-19T14:16:05.558Z,10.41
2023-04-19T14:18:34.816Z,10.43
2023-04-19T14:21:03.235Z,10.43
2023-04-19T14:23:31.748Z,10.43
2023-04-19T14:26:00.362Z,10.44
2023-04-19T14:28:28.717Z,10.43
2023-04-19T14:30:57.067Z,10.41
2023-04-19T14:33:26.939Z,10.37
2023-04-19T14:35:55.380Z,10.29
2023-04-19T14:38:23.829Z,10.24
2023-04-19T14:40:52.116Z,10.17
2023-04-19T14:43:20.479Z,10.11
2023-04-19T14:45:49.975Z,10.06
2023-04-19T14:48:21.481Z,10.02
2023-04-19T14:50:50.530Z,9.99
2023-04-19T14:53:18.854Z,9.91
2023-04-19T14:55:47.179Z,9.77
2023-04-19T14:58:15.925Z,9.65
2023-04-19T15:00:44.618Z,9.55
2023-04-19T15:03:13.536Z,9.51
2023-04-19T15:05:42.050Z,9.47
2023-04-19T15:08:23.369Z,9.42
2023-04-19T15:10:58.150Z,9.36
2023-04-19T15:13:26.956Z,9.34
2023-04-19T15:15:55.363Z,9.32
2023-04-19T15:18:23.732Z,9.30
2023-04-19T15:20:52.059Z,9.29
2023-04-19T15:23:23.892Z,9.25
2023-04-19T15:25:52.705Z,9.19
2023-04-19T15:28:21.174Z,9.16
2023-04-19T15:31:02.915Z,9.14
2023-04-19T15:33:31.689Z,9.10
2023-04-19T15:36:00.120Z,9.07
2023-04-19T15:38:29.721Z,9.05
2023-04-19T15:40:58.481Z,9.03
2023-04-19T15:43:26.824Z,9.00
2023-04-19T15:45:55.095Z,8.97
2023-04-19T15:48:23.951Z,8.97
2023-04-19T15:50:52.204Z,8.96
2023-04-19T15:53:20.803Z,8.96
2023-04-19T15:55:49.385Z,8.98
2023-04-19T15:58:17.942Z,9.00
2023-04-19T16:00:46.287Z,9.02
2023-04-19T16:03:14.697Z,9.04
2023-04-19T16:05:43.193Z,9.05
2023-04-19T16:08:12.043Z,9.06
2023-04-19T16:10:40.457Z,9.06
2023-04-19T16:13:08.850Z,9.07
2023-04-19T16:15:37.070Z,9.09
2023-04-19T16:18:05.573Z,9.09
2023-04-19T16:20:34.055Z,9.09
2023-04-19T16:23:05.791Z,9.09
2023-04-19T16:25:34.360Z,9.09
2023-04-19T16:28:03.221Z,9.09
2023-04-19T16:30:31.627Z,9.09
2023-04-19T16:33:00.181Z,9.09
2023-04-19T16:35:29.002Z,9.10
2023-04-19T16:37:57.865Z,9.10
2023-04-19T16:40:26.527Z,9.11
2023-04-19T16:42:54.930Z,9.12
2023-04-19T16:45:23.265Z,9.13
2023-04-19T16:47:52.246Z,9.14
2023-04-19T16:50:20.816Z,9.14
2023-04-19T16:52:49.287Z,9.15
2023-04-19T16:55:17.786Z,9.15
2023-04-19T16:57:46.037Z,9.14
2023-04-19T17:00:14.996Z,9.13
2023-04-19T17:02:43.640Z,9.14
2023-04-19T17:05:13.940Z,9.13
2023-04-19T17:07:43.788Z,9.13
2023-04-19T17:10:12.290Z,9.13
2023-04-19T17:12:40.863Z,9.12
2023-04-19T17:15:09.481Z,9.13
2023-04-19T17:17:53.700Z,9.15
2023-04-19T17:20:22.439Z,9.12
2023-04-19T17:22:50.703Z,9.12
2023-04-19T17:25:20.975Z,9.11
2023-04-19T17:27:51.068Z,9.10
2023-04-19T17:30:19.513Z,9.10
2023-04-19T17:32:48.025Z,9.10
2023-04-19T17:35:16.404Z,9.09
2023-04-19T17:37:44.872Z,9.10
2023-04-19T17:40:13.283Z,9.12
2023-04-19T17:42:41.573Z,9.12
2023-04-19T17:45:11.317Z,9.12
2023-04-19T17:47:40.015Z,9.12
2023-04-19T17:50:13.078Z,9.13
2023-04-19T17:52:41.566Z,9.14
2023-04-19T17:55:10.009Z,9.14
2023-04-19T17:57:38.412Z,9.15
2023-04-19T18:00:08.156Z,9.15
2023-04-19T18:02:40.871Z,9.17
2023-04-19T18:05:09.490Z,9.18
2023-04-19T18:07:38.037Z,9.18
2023-04-19T18:10:06.902Z,9.19
2023-04-19T18:12:36.796Z,9.19
2023-04-19T18:15:06.784Z,9.21
2023-04-19T18:17:35.986Z,9.22
2023-04-19T18:20:07.114Z,9.23
2023-04-19T18:22:35.579Z,9.25
2023-04-19T18:25:03.996Z,9.26
2023-04-19T18:27:32.827Z,9.26
2023-04-19T18:30:05.186Z,9.26
2023-04-19T18:32:35.721Z,9.26
2023-04-19T18:35:04.858Z,9.27
2023-04-19T18:37:33.339Z,9.28
2023-04-19T18:40:01.996Z,9.29
2023-04-19T18:42:30.619Z,9.29
2023-04-19T18:44:58.986Z,9.29
2023-04-19T18:47:27.524Z,9.29
2023-04-19T18:50:03.761Z,9.29
2023-04-19T18:52:37.370Z,9.30
2023-04-19T18:55:06.644Z,9.30
2023-04-19T18:57:36.125Z,9.31
2023-04-19T19:00:06.644Z,9.31
2023-04-19T19:02:37.692Z,9.31
2023-04-19T19:05:09.021Z,9.32
2023-04-19T19:07:38.498Z,9.32
2023-04-19T19:10:16.929Z,9.32
2023-04-19T19:12:49.605Z,9.32
2023-04-19T19:15:18.641Z,9.33
2023-04-19T19:17:49.612Z,9.33
2023-04-19T19:20:19.616Z,9.34
2023-04-19T19:22:48.541Z,9.34
2023-04-19T19:25:16.977Z,9.34
2023-04-19T19:28:05.737Z,9.35
2023-04-19T19:30:35.879Z,9.35
2023-04-19T19:33:05.134Z,9.35
2023-04-19T19:35:33.789Z,9.35
2023-04-19T19:38:02.171Z,9.35
2023-04-19T19:40:32.429Z,9.35
2023-04-19T19:43:01.585Z,9.36
2023-04-19T19:45:33.276Z,9.36
2023-04-19T19:48:01.896Z,9.36
2023-04-19T19:53:01.765Z,9.35
2023-04-19T19:55:30.539Z,9.35
2023-04-19T20:03:02.259Z,9.36
2023-04-19T20:05:31.014Z,9.37
2023-04-19T20:08:10.130Z,9.39
2023-04-19T20:10:39.580Z,9.40
2023-04-19T20:13:08.203Z,9.41
2023-04-19T20:15:36.909Z,9.42
2023-04-19T20:18:05.894Z,9.43
2023-04-19T20:20:35.936Z,9.43
2023-04-19T20:23:04.676Z,9.44
2023-04-19T20:25:33.098Z,9.44
2023-04-19T20:28:02.087Z,9.43
2023-04-19T20:30:31.105Z,9.42
2023-04-19T20:32:59.568Z,9.41
2023-04-19T20:35:28.585Z,9.41
2023-04-19T20:38:02.942Z,9.41
2023-04-19T20:40:32.370Z,9.40
2023-04-19T20:43:01.586Z,9.40
2023-04-19T20:45:30.201Z,9.39
2023-04-19T20:47:58.814Z,9.38
2023-04-19T20:50:27.062Z,9.38
2023-04-19T20:52:56.814Z,9.38
2023-04-19T20:55:25.281Z,9.39
2023-04-19T20:57:53.705Z,9.40
2023-04-19T21:00:22.220Z,9.41
2023-04-19T21:02:50.678Z,9.42
2023-04-19T21:05:19.184Z,9.41
2023-04-19T21:07:47.606Z,9.41
2023-04-19T21:10:17.403Z,9.43
2023-04-19T21:12:46.015Z,9.44
2023-04-19T21:15:14.691Z,9.46
2023-04-19T21:17:43.028Z,9.46
2023-04-19T21:20:15.982Z,9.47
2023-04-19T21:22:45.370Z,9.48
2023-04-19T21:25:13.947Z,9.49
2023-04-19T21:27:42.486Z,9.50
2023-04-19T21:30:11.422Z,9.51
2023-04-19T21:32:43.010Z,9.53
2023-04-19T21:35:11.557Z,9.54
2023-04-19T21:37:40.092Z,9.56
2023-04-19T21:40:08.738Z,9.56
2023-04-19T21:42:37.297Z,9.57
2023-04-19T21:45:06.277Z,9.57
2023-04-19T21:47:35.650Z,9.57
2023-04-19T21:50:04.571Z,9.57
2023-04-19T21:52:33.155Z,9.58
2023-04-19T21:55:01.475Z,9.58
2023-04-19T21:57:31.138Z,9.59
2023-04-19T21:59:59.542Z,9.59
2023-04-19T22:02:28.025Z,9.60
2023-04-19T22:04:56.824Z,9.60
2023-04-19T22:07:25.245Z,9.61
2023-04-19T22:09:54.477Z,9.62
2023-04-19T22:12:23.538Z,9.61
2023-04-19T22:14:52.098Z,9.61
2023-04-19T22:17:20.746Z,9.63
2023-04-19T22:19:49.268Z,9.64
2023-04-19T22:22:17.518Z,9.64
2023-04-19T22:24:56.708Z,9.64
2023-04-19T22:27:25.959Z,9.64
2023-04-19T22:29:54.248Z,9.63
2023-04-19T22:32:22.722Z,9.63
2023-04-19T22:34:51.497Z,9.62
2023-04-19T22:37:19.750Z,9.61
2023-04-19T22:39:48.119Z,9.60
2023-04-19T22:42:16.520Z,9.60
2023-04-19T22:44:44.982Z,9.60
2023-04-19T22:47:14.634Z,9.60
2023-04-19T22:49:43.511Z,9.59
2023-04-19T22:52:12.173Z,9.60
2023-04-19T22:54:40.532Z,9.61
2023-04-19T22:57:09.051Z,9.61
2023-04-19T22:59:37.523Z,9.61
2023-04-19T23:02:06.117Z,9.62
2023-04-19T23:04:35.472Z,9.63
2023-04-19T23:07:04.323Z,9.65
2023-04-19T23:09:33.657Z,9.67
2023-04-19T23:12:04.115Z,9.69
2023-04-19T23:14:33.092Z,9.70
2023-04-19T23:17:03.013Z,9.71
2023-04-19T23:19:31.704Z,9.71
2023-04-19T23:22:00.031Z,9.72
2023-04-19T23:24:28.291Z,9.74
2023-04-19T23:26:56.960Z,9.75
2023-04-19T23:29:25.187Z,9.76
2023-04-19T23:31:53.484Z,9.77
2023-04-19T23:34:21.860Z,9.79
2023-04-19T23:36:50.198Z,9.78
2023-04-19T23:39:19.015Z,9.79
2023-04-19T23:41:47.521Z,9.78
2023-04-19T23:44:16.093Z,9.78
2023-04-19T23:46:44.640Z,9.77
2023-04-19T23:49:13.009Z,9.77
2023-04-19T23:51:41.317Z,9.77
2023-04-19T23:54:09.589Z,9.77
2023-04-19T23:56:38.751Z,9.78
2023-04-19T23:59:07.271Z,9.78
